Time;durP1;ratioP1;P1;durP2;ratioP2;P2;SDS_P1;SDS_P2;PMS_P1;PMS_P2;Temp;Humidity;BMP_temperature;BMP_pressure;BME280_temperature;BME280_humidity;BME280_pressure;Samples;Min_cycle;Max_cycle;Signal;HPM_P1;HPM_P2
2023/04/20 00:01:55;;;;;;;4.80;3.50;;;6.50;99.90;;;;;;5036059;28;20223;-50
2023/04/20 00:04:21;;;;;;;6.03;2.97;;;6.50;99.90;;;;;;5036005;28;20185;-52
2023/04/20 00:06:48;;;;;;;4.60;3.20;;;6.50;99.90;;;;;;5035897;28;20656;-50
2023/04/20 00:09:14;;;;;;;5.93;2.97;;;6.50;99.90;;;;;;5035628;28;20177;-51
2023/04/20 00:11:40;;;;;;;4.33;2.70;;;6.50;99.90;;;;;;5035749;28;20561;-51
2023/04/20 00:14:06;;;;;;;4.87;2.80;;;6.40;99.90;;;;;;5035540;28;20181;-51
2023/04/20 00:16:31;;;;;;;6.37;3.20;;;6.40;99.90;;;;;;5035480;28;20599;-52
2023/04/20 00:18:59;;;;;;;6.10;3.20;;;6.40;99.90;;;;;;5035579;28;20655;-47
2023/04/20 00:21:24;;;;;;;6.70;3.00;;;6.40;99.90;;;;;;5035311;28;20263;-47
2023/04/20 00:23:50;;;;;;;5.73;3.10;;;6.40;99.90;;;;;;5035570;28;20216;-44
2023/04/20 00:26:16;;;;;;;6.80;3.40;;;6.50;99.90;;;;;;5035583;28;20189;-47
2023/04/20 00:28:42;;;;;;;6.57;3.20;;;6.40;99.90;;;;;;5035505;28;20187;-43
2023/04/20 00:31:08;;;;;;;4.27;3.17;;;6.40;99.90;;;;;;5035221;28;20188;-47
2023/04/20 00:33:34;;;;;;;4.93;3.03;;;6.40;99.90;;;;;;5035140;28;20189;-45
2023/04/20 00:36:00;;;;;;;5.53;3.00;;;6.50;99.90;;;;;;5035018;28;20227;-45
2023/04/20 00:38:26;;;;;;;5.47;3.23;;;6.40;99.90;;;;;;5035063;28;20551;-44
2023/04/20 00:40:53;;;;;;;3.20;2.53;;;6.40;99.90;;;;;;5035277;28;20208;-46
2023/04/20 00:43:19;;;;;;;10.43;3.07;;;6.40;99.90;;;;;;5034902;28;20201;-47
2023/04/20 00:45:46;;;;;;;9.23;3.37;;;6.30;99.90;;;;;;5034882;28;20671;-46
2023/04/20 00:48:12;;;;;;;8.03;3.57;;;6.30;99.90;;;;;;5034827;28;20197;-43
2023/04/20 00:50:39;;;;;;;6.23;3.20;;;6.30;99.90;;;;;;5035067;28;20595;-46
2023/04/20 00:53:06;;;;;;;9.93;3.23;;;6.20;99.90;;;;;;5035498;28;20213;-43
2023/04/20 00:55:34;;;;;;;5.80;3.57;;;6.20;99.90;;;;;;5034886;28;20228;-45
2023/04/20 00:58:00;;;;;;;5.40;3.50;;;6.20;99.90;;;;;;5034988;28;20260;-45
2023/04/20 01:00:26;;;;;;;8.70;3.67;;;6.20;99.90;;;;;;5034669;28;20637;-48
2023/04/20 01:02:51;;;;;;;6.83;3.40;;;6.20;99.90;;;;;;5034799;28;20200;-47
2023/04/20 01:05:17;;;;;;;9.20;3.57;;;6.20;99.90;;;;;;5034550;28;20663;-44
2023/04/20 01:07:43;;;;;;;10.30;3.93;;;6.10;99.90;;;;;;5034767;28;20495;-46
2023/04/20 01:10:09;;;;;;;5.73;3.17;;;6.10;99.90;;;;;;5034770;28;20188;-48
2023/04/20 01:12:35;;;;;;;8.20;3.97;;;6.00;99.90;;;;;;5034505;28;20203;-43
2023/04/20 01:15:02;;;;;;;4.50;2.90;;;5.90;99.90;;;;;;5034591;28;20205;-44
2023/04/20 01:17:28;;;;;;;4.60;3.17;;;5.90;99.90;;;;;;5034259;28;20724;-45
2023/04/20 01:19:53;;;;;;;10.30;3.30;;;5.80;99.90;;;;;;5034249;28;20267;-45
2023/04/20 01:22:20;;;;;;;4.40;3.20;;;5.80;99.90;;;;;;5034128;28;20668;-45
2023/04/20 01:24:45;;;;;;;4.90;3.07;;;5.80;99.90;;;;;;5034725;28;20211;-45
2023/04/20 01:27:13;;;;;;;7.97;3.33;;;5.80;99.90;;;;;;5034123;28;20199;-47
2023/04/20 01:29:39;;;;;;;6.20;3.30;;;5.80;99.90;;;;;;5034237;28;20189;-44
2023/04/20 01:32:05;;;;;;;6.00;3.10;;;5.80;99.90;;;;;;5033713;28;20302;-47
2023/04/20 01:34:30;;;;;;;4.73;2.80;;;5.80;99.90;;;;;;5034203;28;20246;-45
2023/04/20 01:36:56;;;;;;;5.70;3.03;;;5.80;99.90;;;;;;5033938;28;20181;-45
2023/04/20 01:39:22;;;;;;;8.07;3.33;;;5.90;99.90;;;;;;5033806;28;20185;-48
2023/04/20 01:41:48;;;;;;;5.80;3.20;;;5.90;99.90;;;;;;5033790;28;20200;-46
2023/04/20 01:44:13;;;;;;;6.27;3.17;;;5.90;99.90;;;;;;5033945;28;20634;-47
2023/04/20 01:46:39;;;;;;;3.87;2.87;;;6.00;99.90;;;;;;5033826;28;20188;-46
2023/04/20 01:49:05;;;;;;;5.13;2.93;;;5.90;99.90;;;;;;5033635;28;20188;-45
2023/04/20 01:51:32;;;;;;;8.67;3.07;;;6.70;99.90;;;;;;5033866;28;20201;-45
2023/04/20 01:53:58;;;;;;;6.10;3.57;;;5.90;99.90;;;;;;5033621;28;20213;-45
2023/04/20 01:56:24;;;;;;;4.83;2.70;;;5.80;99.90;;;;;;5033881;28;20173;-48
2023/04/20 01:58:50;;;;;;;4.03;3.00;;;5.80;99.90;;;;;;5034180;28;20184;-44
2023/04/20 02:01:16;;;;;;;5.67;3.07;;;5.80;99.90;;;;;;5034298;28;20268;-47
2023/04/20 02:03:41;;;;;;;5.73;3.00;;;5.70;99.90;;;;;;5033560;28;20231;-46
2023/04/20 02:06:07;;;;;;;5.73;2.83;;;5.70;99.90;;;;;;5033491;28;20188;-46
2023/04/20 02:08:33;;;;;;;6.43;3.13;;;5.70;99.90;;;;;;5033781;28;20189;-44
2023/04/20 02:10:59;;;;;;;5.97;2.93;;;5.70;99.90;;;;;;5033467;28;20180;-47
2023/04/20 02:13:24;;;;;;;6.87;3.70;;;5.70;99.90;;;;;;5033571;28;20210;-48
2023/04/20 02:15:50;;;;;;;6.70;2.87;;;5.70;99.90;;;;;;5033570;28;20204;-46
2023/04/20 02:18:16;;;;;;;5.33;2.80;;;5.70;99.90;;;;;;5033358;28;20556;-47
2023/04/20 02:20:43;;;;;;;5.27;2.90;;;5.70;99.90;;;;;;5033384;28;20169;-46
2023/04/20 02:23:08;;;;;;;6.63;2.50;;;5.80;99.90;;;;;;5033538;28;20192;-45
2023/04/20 02:25:34;;;;;;;5.13;2.47;;;5.80;99.90;;;;;;5033559;28;20559;-47
2023/04/20 02:28:00;;;;;;;5.83;3.23;;;5.80;99.90;;;;;;5033612;28;20417;-45
2023/04/20 02:30:25;;;;;;;3.57;2.77;;;5.80;99.90;;;;;;5033838;28;20244;-43
2023/04/20 02:32:51;;;;;;;5.87;3.10;;;5.80;99.90;;;;;;5033139;28;20199;-47
2023/04/20 02:35:17;;;;;;;6.63;3.60;;;5.80;99.90;;;;;;5033421;28;20222;-45
2023/04/20 02:37:43;;;;;;;5.40;3.00;;;5.80;99.90;;;;;;5033822;28;20529;-46
2023/04/20 02:40:09;;;;;;;6.30;3.10;;;5.80;99.90;;;;;;5033795;28;20645;-46
2023/04/20 02:42:34;;;;;;;8.87;2.67;;;5.80;99.90;;;;;;5035038;28;20203;-45
2023/04/20 02:45:00;;;;;;;4.63;3.07;;;5.70;99.90;;;;;;5038825;28;20184;-45
2023/04/20 02:47:26;;;;;;;8.47;3.10;;;5.80;99.90;;;;;;5037446;28;20184;-45
2023/04/20 02:49:51;;;;;;;8.50;2.67;;;5.80;99.90;;;;;;5037403;28;20659;-46
2023/04/20 02:52:17;;;;;;;3.30;2.67;;;5.80;99.90;;;;;;5037183;28;20208;-46
2023/04/20 02:54:43;;;;;;;5.97;3.20;;;5.80;99.90;;;;;;5037200;28;20237;-45
2023/04/20 02:57:10;;;;;;;4.67;2.80;;;5.80;99.90;;;;;;5036974;28;20190;-45
2023/04/20 02:59:36;;;;;;;6.10;3.03;;;5.90;99.90;;;;;;5036999;28;20214;-44
2023/04/20 03:02:02;;;;;;;5.83;3.27;;;5.80;99.90;;;;;;5037327;28;20199;-47
2023/04/20 03:04:27;;;;;;;7.70;2.80;;;5.80;99.90;;;;;;5037085;28;20191;-44
2023/04/20 03:06:53;;;;;;;8.83;3.10;;;5.80;99.90;;;;;;5037074;28;20184;-46
2023/04/20 03:09:19;;;;;;;6.53;3.10;;;5.80;99.90;;;;;;5036982;28;20190;-43
2023/04/20 03:11:44;;;;;;;7.67;3.40;;;5.80;99.90;;;;;;5036881;28;20714;-44
2023/04/20 03:14:10;;;;;;;5.53;2.70;;;5.80;99.90;;;;;;5036651;28;20652;-47
2023/04/20 03:16:36;;;;;;;5.57;3.00;;;5.80;99.90;;;;;;5036559;28;20184;-44
2023/04/20 03:19:03;;;;;;;5.93;2.83;;;5.80;99.90;;;;;;5019110;28;20245;-42
2023/04/20 03:21:29;;;;;;;7.20;2.90;;;5.80;99.90;;;;;;5036973;28;20215;-46
2023/04/20 03:23:54;;;;;;;4.23;2.97;;;5.90;99.90;;;;;;5036543;28;20644;-44
2023/04/20 03:26:20;;;;;;;3.83;2.60;;;5.90;99.90;;;;;;5036672;28;20235;-46
2023/04/20 03:28:45;;;;;;;3.77;2.27;;;5.90;99.90;;;;;;5036687;28;20182;-47
2023/04/20 03:31:11;;;;;;;4.17;2.47;;;6.00;99.90;;;;;;5036509;28;20180;-48
2023/04/20 03:33:36;;;;;;;4.37;2.50;;;6.00;99.90;;;;;;5036341;28;20176;-45
2023/04/20 03:36:04;;;;;;;5.53;2.80;;;6.00;99.90;;;;;;5036205;28;20200;-44
2023/04/20 03:38:30;;;;;;;3.77;2.77;;;6.00;99.90;;;;;;5036161;28;20679;-47
2023/04/20 03:40:55;;;;;;;4.33;2.57;;;6.00;99.90;;;;;;5036441;28;20173;-45
2023/04/20 03:43:21;;;;;;;2.60;2.20;;;6.00;99.90;;;;;;5036068;28;20255;-46
2023/04/20 03:45:46;;;;;;;4.07;2.87;;;6.10;99.90;;;;;;5036356;28;20204;-46
2023/04/20 03:48:12;;;;;;;4.33;2.70;;;6.10;99.90;;;;;;5035979;28;20691;-47
2023/04/20 03:50:37;;;;;;;4.60;2.80;;;6.10;99.90;;;;;;5035989;28;20257;-44
2023/04/20 03:53:03;;;;;;;11.50;2.80;;;6.10;99.90;;;;;;5035749;28;20318;-44
2023/04/20 03:55:29;;;;;;;11.40;2.60;;;6.20;99.90;;;;;;5035852;28;20215;-45
2023/04/20 03:57:54;;;;;;;6.30;2.80;;;6.20;99.90;;;;;;5036105;28;20184;-46
2023/04/20 04:00:20;;;;;;;6.53;2.70;;;6.20;99.90;;;;;;5036148;28;20560;-44
2023/04/20 04:02:45;;;;;;;4.30;2.83;;;6.20;99.90;;;;;;5035706;28;20271;-48
2023/04/20 04:05:11;;;;;;;8.23;2.60;;;6.20;99.90;;;;;;5035712;28;20690;-48
2023/04/20 04:07:37;;;;;;;11.27;3.00;;;6.10;99.90;;;;;;5036215;28;20247;-47
2023/04/20 04:10:04;;;;;;;4.53;3.03;;;6.10;99.90;;;;;;5035874;28;20646;-47
2023/04/20 04:12:30;;;;;;;3.93;2.70;;;6.00;99.90;;;;;;5035751;28;20213;-47
2023/04/20 04:14:55;;;;;;;4.47;2.60;;;6.00;99.90;;;;;;5035495;28;20212;-47
2023/04/20 04:17:21;;;;;;;4.97;2.80;;;5.90;99.90;;;;;;5017791;28;20267;-47
2023/04/20 04:19:46;;;;;;;8.40;3.43;;;5.90;99.90;;;;;;5035443;28;20180;-46
2023/04/20 04:22:12;;;;;;;6.00;3.40;;;5.90;99.90;;;;;;5035315;28;20689;-48
2023/04/20 04:24:38;;;;;;;4.47;3.00;;;5.90;99.90;;;;;;5035907;28;20192;-48
2023/04/20 04:27:04;;;;;;;5.23;3.03;;;5.80;99.90;;;;;;5035667;28;20191;-48
2023/04/20 04:29:30;;;;;;;4.63;2.70;;;5.80;99.90;;;;;;5035555;28;20192;-46
2023/04/20 04:31:57;;;;;;;5.47;2.70;;;5.80;99.90;;;;;;5035562;28;20576;-48
2023/04/20 04:34:23;;;;;;;8.13;3.40;;;5.80;99.90;;;;;;5035164;28;20208;-46
2023/04/20 04:36:49;;;;;;;5.43;2.93;;;5.70;99.90;;;;;;5035341;28;20672;-48
2023/04/20 04:39:14;;;;;;;5.23;3.03;;;5.70;99.90;;;;;;5035270;28;20176;-46
2023/04/20 04:41:40;;;;;;;12.90;3.90;;;5.70;99.90;;;;;;5035089;28;20204;-47
2023/04/20 04:44:06;;;;;;;6.50;3.13;;;5.70;99.90;;;;;;5035435;28;20176;-45
2023/04/20 04:46:32;;;;;;;8.30;3.47;;;5.70;99.90;;;;;;5035380;28;20181;-47
2023/04/20 04:49:01;;;;;;;8.77;3.37;;;5.70;99.90;;;;;;5034982;28;20234;-44
2023/04/20 04:51:27;;;;;;;6.67;3.67;;;5.70;99.90;;;;;;5034901;28;20520;-46
2023/04/20 04:53:52;;;;;;;7.33;4.80;;;5.70;99.90;;;;;;5035159;28;20283;-47
2023/04/20 04:56:19;;;;;;;8.07;4.20;;;5.70;99.90;;;;;;5035229;28;20209;-44
2023/04/20 04:58:45;;;;;;;4.87;3.10;;;5.70;99.90;;;;;;5035079;28;20189;-45
2023/04/20 05:01:10;;;;;;;5.43;3.17;;;5.70;99.90;;;;;;5034863;28;20187;-44
2023/04/20 05:03:36;;;;;;;10.13;3.87;;;5.70;99.90;;;;;;5034719;28;20626;-46
2023/04/20 05:06:02;;;;;;;5.30;3.40;;;5.70;99.90;;;;;;5033945;28;20588;-46
2023/04/20 05:08:27;;;;;;;7.33;4.50;;;5.70;99.90;;;;;;5016866;28;20199;-44
2023/04/20 05:10:53;;;;;;;7.33;4.40;;;5.70;99.90;;;;;;5034508;28;20243;-48
2023/04/20 05:13:19;;;;;;;13.23;3.20;;;5.70;99.90;;;;;;5034350;28;20211;-46
2023/04/20 05:15:44;;;;;;;10.60;3.30;;;5.70;99.90;;;;;;5035695;28;20214;-45
2023/04/20 05:18:10;;;;;;;5.23;3.67;;;5.70;99.90;;;;;;5034800;28;20276;-46
2023/04/20 05:20:35;;;;;;;3.40;2.83;;;5.70;99.90;;;;;;5034595;28;20184;-47
2023/04/20 05:23:01;;;;;;;7.93;3.27;;;5.70;99.90;;;;;;5016604;28;20299;-47
2023/04/20 05:25:27;;;;;;;6.27;3.60;;;5.70;99.90;;;;;;5034233;28;20590;-45
2023/04/20 05:27:52;;;;;;;3.80;3.03;;;5.70;99.90;;;;;;5034366;28;20191;-43
2023/04/20 05:30:18;;;;;;;5.93;3.57;;;5.70;99.90;;;;;;5016554;28;20192;-45
2023/04/20 05:32:43;;;;;;;6.87;3.60;;;5.70;99.90;;;;;;5034099;28;20204;-46
2023/04/20 05:35:09;;;;;;;7.77;4.10;;;5.70;99.90;;;;;;5034008;28;20212;-44
2023/04/20 05:37:34;;;;;;;5.77;3.40;;;5.70;99.90;;;;;;5034308;28;20282;-45
2023/04/20 05:40:00;;;;;;;3.37;2.93;;;5.80;99.90;;;;;;5034349;28;20234;-45
2023/04/20 05:42:25;;;;;;;8.90;3.30;;;5.80;99.90;;;;;;5034591;28;20195;-44
2023/04/20 05:44:51;;;;;;;4.70;3.40;;;5.80;99.90;;;;;;5033965;28;20183;-47
2023/04/20 05:47:16;;;;;;;6.00;3.60;;;5.80;99.90;;;;;;5034472;28;20192;-45
2023/04/20 05:49:44;;;;;;;6.27;3.40;;;5.80;99.90;;;;;;5034255;28;20241;-44
2023/04/20 05:52:09;;;;;;;7.27;3.87;;;5.80;99.90;;;;;;5035314;28;20250;-44
2023/04/20 05:54:35;;;;;;;9.80;3.33;;;5.80;99.90;;;;;;5033894;28;20725;-45
2023/04/20 05:57:00;;;;;;;11.43;3.90;;;5.80;99.90;;;;;;5033720;28;20183;-46
2023/04/20 05:59:26;;;;;;;5.20;3.40;;;5.80;99.90;;;;;;5034179;28;20182;-43
2023/04/20 06:01:52;;;;;;;10.97;3.33;;;5.80;99.90;;;;;;5033480;28;20563;-45
2023/04/20 06:04:17;;;;;;;8.33;3.67;;;5.80;99.90;;;;;;5033558;28;20238;-45
2023/04/20 06:06:43;;;;;;;7.47;3.57;;;5.80;99.90;;;;;;5033508;28;20191;-47
2023/04/20 06:09:09;;;;;;;6.50;3.50;;;5.80;99.90;;;;;;5033538;28;20184;-46
2023/04/20 06:11:34;;;;;;;5.83;3.30;;;5.90;99.90;;;;;;5033754;28;20282;-48
2023/04/20 06:14:00;;;;;;;7.93;3.43;;;5.90;99.90;;;;;;5015850;28;20193;-46
2023/04/20 06:16:25;;;;;;;8.17;4.10;;;5.90;99.90;;;;;;5033283;28;20219;-44
2023/04/20 06:18:51;;;;;;;4.50;3.93;;;6.00;99.90;;;;;;5033618;28;20229;-46
2023/04/20 06:21:17;;;;;;;6.10;3.90;;;6.00;99.90;;;;;;5015579;28;20188;-46
2023/04/20 06:23:45;;;;;;;8.87;3.77;;;6.00;99.90;;;;;;5033527;28;20199;-46
2023/04/20 06:26:11;;;;;;;5.43;3.80;;;6.10;99.90;;;;;;5033586;28;20184;-47
2023/04/20 06:28:37;;;;;;;6.43;3.70;;;6.10;99.90;;;;;;5033396;28;20646;-45
2023/04/20 06:31:03;;;;;;;6.10;3.93;;;6.10;99.90;;;;;;5017344;28;20192;-46
2023/04/20 06:33:29;;;;;;;4.90;3.97;;;6.20;99.90;;;;;;5034375;28;20262;-46
2023/04/20 06:35:55;;;;;;;9.97;4.50;;;6.20;99.90;;;;;;5033916;28;20611;-47
2023/04/20 06:38:22;;;;;;;8.37;4.40;;;6.20;99.90;;;;;;5033688;28;20171;-47
2023/04/20 06:40:48;;;;;;;8.20;3.87;;;6.30;99.90;;;;;;5033815;28;20241;-47
2023/04/20 06:43:14;;;;;;;5.33;4.10;;;6.30;99.90;;;;;;5033435;28;20568;-47
2023/04/20 06:45:39;;;;;;;5.73;4.10;;;6.30;99.90;;;;;;5033418;28;20184;-46
2023/04/20 06:48:05;;;;;;;10.80;4.40;;;6.40;99.90;;;;;;5033363;28;20199;-51
2023/04/20 06:50:31;;;;;;;7.07;4.10;;;6.40;99.90;;;;;;5033306;28;20184;-51
2023/04/20 06:52:56;;;;;;;6.77;3.90;;;6.40;99.90;;;;;;5033514;28;20703;-51
2023/04/20 06:55:22;;;;;;;7.03;4.20;;;6.50;99.90;;;;;;5033135;28;20692;-50
2023/04/20 06:57:48;;;;;;;5.70;4.37;;;6.50;99.90;;;;;;5033351;28;20648;-50
2023/04/20 07:00:14;;;;;;;6.60;4.23;;;6.50;99.90;;;;;;5033045;28;20550;-50
2023/04/20 07:02:44;;;;;;;7.33;4.73;;;6.60;99.90;;;;;;5033158;28;20282;-51
2023/04/20 07:05:10;;;;;;;8.00;4.53;;;6.60;99.90;;;;;;5032989;28;20177;-51
2023/04/20 07:07:36;;;;;;;8.60;4.50;;;6.70;99.90;;;;;;5032913;28;20269;-50
2023/04/20 07:10:01;;;;;;;9.03;4.50;;;6.70;99.90;;;;;;5032876;28;20271;-52
2023/04/20 07:12:27;;;;;;;6.23;4.33;;;6.80;99.90;;;;;;5032945;28;20567;-50
2023/04/20 07:14:53;;;;;;;8.10;5.83;;;6.80;99.90;;;;;;5033000;28;20201;-50
2023/04/20 07:17:19;;;;;;;7.63;4.70;;;6.80;99.90;;;;;;5033083;28;20184;-50
2023/04/20 07:19:44;;;;;;;7.90;5.13;;;6.80;99.90;;;;;;5033236;28;20508;-50
2023/04/20 07:22:10;;;;;;;8.77;5.07;;;6.80;99.90;;;;;;5032766;28;20612;-52
2023/04/20 07:24:35;;;;;;;9.87;6.53;;;6.80;99.90;;;;;;5033027;28;20572;-51
2023/04/20 07:27:01;;;;;;;12.20;6.43;;;6.90;99.90;;;;;;5032725;28;20725;-53
2023/04/20 07:29:27;;;;;;;12.67;7.43;;;6.80;99.90;;;;;;5035296;28;20196;-50
2023/04/20 07:31:52;;;;;;;9.53;7.20;;;6.80;99.90;;;;;;5036349;28;20343;-51
2023/04/20 07:34:18;;;;;;;10.33;6.67;;;6.80;99.90;;;;;;5036234;28;20192;-51
2023/04/20 07:36:44;;;;;;;6.13;4.50;;;6.90;99.90;;;;;;5037315;28;20180;-52
2023/04/20 07:39:09;;;;;;;7.90;5.33;;;6.80;99.90;;;;;;5036400;28;20673;-51
2023/04/20 07:41:35;;;;;;;10.07;6.33;;;6.80;99.90;;;;;;5036401;28;20200;-52
2023/04/20 07:44:01;;;;;;;13.77;6.37;;;6.90;99.90;;;;;;5036120;28;20195;-51
2023/04/20 07:46:27;;;;;;;12.53;6.00;;;6.90;99.90;;;;;;5036112;28;20189;-50
2023/04/20 07:48:53;;;;;;;8.97;5.00;;;6.90;99.90;;;;;;5035907;28;20192;-50
2023/04/20 07:51:18;;;;;;;9.13;5.50;;;6.90;99.90;;;;;;5035936;28;20188;-51
2023/04/20 07:53:44;;;;;;;5.83;4.93;;;6.90;99.90;;;;;;5035955;28;20235;-52
2023/04/20 07:56:10;;;;;;;7.90;5.17;;;6.80;99.90;;;;;;5036068;28;20207;-51
2023/04/20 07:58:37;;;;;;;5.23;4.60;;;6.80;99.90;;;;;;5036169;28;20181;-50
2023/04/20 08:01:03;;;;;;;10.10;5.00;;;6.80;99.90;;;;;;5035872;28;20172;-50
2023/04/20 08:03:29;;;;;;;6.07;4.20;;;6.80;99.90;;;;;;5035750;28;20209;-51
2023/04/20 08:05:55;;;;;;;5.97;4.57;;;6.80;99.90;;;;;;5036078;28;20188;-50
2023/04/20 08:08:20;;;;;;;6.40;4.13;;;6.90;99.90;;;;;;5035705;28;20653;-50
2023/04/20 08:10:46;;;;;;;5.17;3.97;;;7.00;99.90;;;;;;5035633;28;20177;-51
2023/04/20 08:13:11;;;;;;;9.43;4.33;;;7.10;99.90;;;;;;5035777;28;20711;-51
2023/04/20 08:15:37;;;;;;;11.30;4.87;;;7.20;99.90;;;;;;5035473;28;20209;-51
2023/04/20 08:18:02;;;;;;;5.23;4.20;;;7.20;99.90;;;;;;5035745;28;20185;-50
2023/04/20 08:20:28;;;;;;;8.57;4.40;;;7.20;99.90;;;;;;5035518;28;20231;-51
2023/04/20 08:22:54;;;;;;;7.37;4.63;;;7.20;99.90;;;;;;5035385;28;20208;-51
2023/04/20 08:25:19;;;;;;;10.20;4.93;;;7.30;99.90;;;;;;5017692;28;20671;-50
2023/04/20 08:27:45;;;;;;;7.00;4.23;;;7.20;99.90;;;;;;5035307;28;20196;-52
2023/04/20 08:30:11;;;;;;;14.90;5.07;;;7.20;99.90;;;;;;5035259;28;20215;-52
2023/04/20 08:32:36;;;;;;;7.17;5.10;;;7.20;99.90;;;;;;5035445;28;20212;-52
2023/04/20 08:35:03;;;;;;;6.67;4.50;;;7.20;99.90;;;;;;5035383;28;20235;-51
2023/04/20 08:37:28;;;;;;;5.80;4.67;;;7.30;99.90;;;;;;5035392;28;20185;-51
2023/04/20 08:39:54;;;;;;;5.47;4.83;;;7.30;99.90;;;;;;5033978;28;20201;-51
2023/04/20 08:42:19;;;;;;;7.90;5.13;;;7.30;99.90;;;;;;5017295;28;20205;-50
2023/04/20 08:44:45;;;;;;;8.60;4.57;;;7.30;99.90;;;;;;5035292;28;20177;-51
2023/04/20 08:47:11;;;;;;;6.47;5.00;;;7.40;99.90;;;;;;5035052;28;20187;-52
2023/04/20 08:49:40;;;;;;;8.90;5.20;;;7.40;99.90;;;;;;5034852;28;20362;-52
2023/04/20 08:52:09;;;;;;;7.97;5.00;;;7.40;99.90;;;;;;5035069;28;20205;-51
2023/04/20 08:54:38;;;;;;;5.13;3.50;;;7.40;99.90;;;;;;5035228;28;20200;-51
2023/04/20 08:57:04;;;;;;;11.17;5.53;;;7.40;99.90;;;;;;5035110;28;20176;-52
2023/04/20 08:59:30;;;;;;;5.03;4.40;;;7.40;99.90;;;;;;5035161;28;20184;-51
2023/04/20 09:02:08;;;;;;;9.57;5.73;;;7.40;99.90;;;;;;5035021;28;20610;-51
2023/04/20 09:04:33;;;;;;;8.90;5.33;;;7.50;99.90;;;;;;5035668;28;20170;-46
2023/04/20 09:06:59;;;;;;;10.53;5.17;;;7.50;99.90;;;;;;5034638;28;20195;-46
2023/04/20 09:09:26;;;;;;;6.73;4.83;;;7.60;99.90;;;;;;5034574;28;20637;-46
2023/04/20 09:12:03;;;;;;;6.13;4.13;;;7.70;99.90;;;;;;5034848;28;20578;-47
2023/04/20 09:14:29;;;;;;;8.47;4.57;;;7.80;99.90;;;;;;5034366;28;20231;-48
2023/04/20 09:17:00;;;;;;;10.07;4.40;;;7.90;99.90;;;;;;5034409;28;20189;-46
2023/04/20 09:19:27;;;;;;;10.50;4.47;;;8.00;99.90;;;;;;5034993;28;20166;-47
2023/04/20 09:21:55;;;;;;;4.87;4.27;;;8.10;99.90;;;;;;5034134;28;20285;-46
2023/04/20 09:24:22;;;;;;;6.77;4.90;;;8.20;99.90;;;;;;5034238;28;20539;-47
2023/04/20 09:26:47;;;;;;;6.60;4.50;;;8.30;99.90;;;;;;5034167;28;20209;-48
2023/04/20 09:29:19;;;;;;;5.60;4.50;;;8.40;99.90;;;;;;5034187;28;20185;-46
2023/04/20 09:31:45;;;;;;;7.13;5.07;;;8.40;99.90;;;;;;5034031;28;20197;-46
2023/04/20 09:34:11;;;;;;;5.53;4.40;;;8.40;99.90;;;;;;5033984;28;20177;-47
2023/04/20 09:36:39;;;;;;;4.87;3.17;;;8.30;99.90;;;;;;5034087;28;20183;-46
2023/04/20 09:39:16;;;;;;;5.63;4.27;;;8.30;99.90;;;;;;5033984;28;20179;-45
2023/04/20 09:41:42;;;;;;;7.30;4.30;;;8.30;99.90;;;;;;5033883;28;20201;-46
2023/04/20 09:44:10;;;;;;;4.97;3.80;;;8.20;99.90;;;;;;5033885;28;20192;-46
2023/04/20 09:46:38;;;;;;;6.83;4.93;;;8.30;99.90;;;;;;5033931;28;20187;-47
2023/04/20 09:49:05;;;;;;;7.67;4.77;;;8.30;99.90;;;;;;5033771;28;20534;-47
2023/04/20 09:51:34;;;;;;;10.10;4.77;;;8.30;99.90;;;;;;5033411;28;20212;-47
2023/04/20 09:54:01;;;;;;;7.63;3.87;;;8.40;99.90;;;;;;5033974;28;20227;-47
2023/04/20 09:56:28;;;;;;;5.43;4.93;;;8.50;99.90;;;;;;5033763;28;20247;-46
2023/04/20 09:58:55;;;;;;;14.00;5.67;;;8.50;99.90;;;;;;5033716;28;20197;-48
2023/04/20 10:01:22;;;;;;;7.20;5.13;;;8.60;99.90;;;;;;5034192;28;20542;-48
2023/04/20 10:03:48;;;;;;;8.53;4.70;;;8.60;99.90;;;;;;5034142;28;20647;-46
2023/04/20 10:06:24;;;;;;;7.23;4.93;;;8.60;99.90;;;;;;5033615;28;20726;-46
2023/04/20 10:08:51;;;;;;;6.03;4.70;;;8.50;99.90;;;;;;5033526;28;20181;-47
2023/04/20 10:11:32;;;;;;;6.83;4.63;;;8.50;99.90;;;;;;5033526;28;20198;-46
2023/04/20 10:13:59;;;;;;;8.10;5.20;;;8.50;99.90;;;;;;5015797;28;20200;-47
2023/04/20 10:16:25;;;;;;;6.77;5.00;;;8.40;99.90;;;;;;5033453;28;20267;-47
2023/04/20 10:19:03;;;;;;;8.70;6.03;;;8.40;99.90;;;;;;5033424;28;20185;-47
2023/04/20 10:21:31;;;;;;;8.37;5.67;;;8.40;99.90;;;;;;5033581;28;20631;-46
2023/04/20 10:23:59;;;;;;;6.47;5.07;;;8.40;99.90;;;;;;5033319;28;20644;-49
2023/04/20 10:26:36;;;;;;;6.83;5.20;;;8.50;99.90;;;;;;5015555;28;20191;-47
2023/04/20 10:29:02;;;;;;;5.60;4.93;;;8.60;99.90;;;;;;5033567;28;20179;-47
2023/04/20 10:31:40;;;;;;;7.40;4.53;;;8.70;99.90;;;;;;5033797;28;20226;-46
2023/04/20 10:34:07;;;;;;;10.93;4.67;;;8.90;99.90;;;;;;5033513;28;20180;-48
2023/04/20 10:36:35;;;;;;;4.97;4.07;;;9.10;99.90;;;;;;5033441;28;20222;-47
2023/04/20 10:39:16;;;;;;;7.63;4.20;;;9.20;99.90;;;;;;5033395;28;20180;-48
2023/04/20 10:42:02;;;;;;;6.80;4.93;;;9.20;99.90;;;;;;5033400;28;20224;-47
2023/04/20 10:44:29;;;;;;;7.97;5.30;;;9.30;99.90;;;;;;5033572;28;20501;-46
2023/04/20 10:46:55;;;;;;;8.73;5.13;;;9.30;99.90;;;;;;5033418;28;20172;-48
2023/04/20 10:49:28;;;;;;;10.40;5.63;;;9.30;99.90;;;;;;5033044;28;20726;-48
2023/04/20 10:51:54;;;;;;;8.80;5.30;;;9.20;99.90;;;;;;5033055;28;20228;-46
2023/04/20 10:54:20;;;;;;;10.73;5.70;;;9.30;99.90;;;;;;5033049;28;20185;-48
2023/04/20 10:56:53;;;;;;;10.07;6.00;;;9.30;99.90;;;;;;5033065;28;20177;-47
2023/04/20 10:59:22;;;;;;;4.33;3.67;;;9.30;99.90;;;;;;5033819;28;20170;-47
2023/04/20 11:01:48;;;;;;;5.90;3.90;;;9.30;99.90;;;;;;5032908;28;20250;-48
2023/04/20 11:04:14;;;;;;;3.83;2.70;;;9.40;99.90;;;;;;5035153;28;20268;-47
2023/04/20 11:06:44;;;;;;;2.80;1.80;;;9.40;99.90;;;;;;5037172;28;20264;-47
2023/04/20 11:09:22;;;;;;;1.97;1.60;;;9.20;99.90;;;;;;5037218;28;20177;-47
2023/04/20 11:12:02;;;;;;;1.80;1.70;;;9.00;99.90;;;;;;5036695;28;20273;-48
2023/04/20 11:14:29;;;;;;;2.63;1.80;;;8.60;99.90;;;;;;5037298;28;20522;-48
2023/04/20 11:16:55;;;;;;;2.17;1.97;;;8.40;99.90;;;;;;5036999;28;20173;-48
2023/04/20 11:19:23;;;;;;;2.10;1.90;;;8.40;99.90;;;;;;5036595;28;20181;-48
2023/04/20 11:21:49;;;;;;;2.07;1.97;;;8.30;99.90;;;;;;5036779;28;20537;-48
2023/04/20 11:24:19;;;;;;;3.33;2.20;;;8.30;99.90;;;;;;5037083;28;20322;-46
2023/04/20 11:26:48;;;;;;;2.57;2.10;;;8.50;99.90;;;;;;5036822;28;20216;-48
2023/04/20 11:29:26;;;;;;;2.30;2.00;;;8.70;99.90;;;;;;5036484;28;20177;-48
2023/04/20 11:31:52;;;;;;;2.13;1.90;;;8.90;99.90;;;;;;5036530;28;20197;-47
2023/04/20 11:34:18;;;;;;;2.37;2.00;;;9.10;99.90;;;;;;5018561;28;20192;-47
2023/04/20 11:36:45;;;;;;;2.00;1.70;;;9.20;99.90;;;;;;5036583;28;20184;-48
2023/04/20 11:39:14;;;;;;;2.13;1.73;;;9.40;99.90;;;;;;5036703;28;20192;-44
2023/04/20 11:41:41;;;;;;;1.67;1.53;;;9.60;99.90;;;;;;5036128;28;20204;-45
2023/04/20 11:44:07;;;;;;;1.60;1.50;;;9.80;99.90;;;;;;5036178;28;20191;-46
2023/04/20 11:46:36;;;;;;;2.60;2.00;;;10.00;99.90;;;;;;5036294;28;20181;-47
2023/04/20 11:49:03;;;;;;;1.80;1.70;;;10.10;99.90;;;;;;5036464;28;20722;-48
2023/04/20 11:51:28;;;;;;;1.63;1.53;;;10.20;99.90;;;;;;5036030;28;20181;-47
2023/04/20 11:53:54;;;;;;;1.73;1.10;;;10.40;99.90;;;;;;5018205;28;20239;-43
2023/04/20 11:56:20;;;;;;;1.50;1.40;;;10.60;99.90;;;;;;5036138;28;20209;-46
2023/04/20 11:58:45;;;;;;;1.87;1.50;;;11.00;99.90;;;;;;5035932;28;20219;-47
2023/04/20 12:01:12;;;;;;;1.57;1.30;;;11.10;99.90;;;;;;5035785;28;20184;-46
2023/04/20 12:03:37;;;;;;;1.30;1.13;;;11.00;99.90;;;;;;5018001;28;20185;-44
2023/04/20 12:06:03;;;;;;;1.70;1.60;;;11.00;99.90;;;;;;5036058;28;20207;-46
2023/04/20 12:08:28;;;;;;;1.47;1.37;;;11.00;99.90;;;;;;5035817;28;20181;-46
2023/04/20 12:10:54;;;;;;;1.73;1.63;;;11.00;99.90;;;;;;5035806;28;20192;-45
2023/04/20 12:13:20;;;;;;;1.73;1.40;;;11.00;99.90;;;;;;5035993;28;20204;-45
2023/04/20 12:15:45;;;;;;;1.00;1.00;;;11.00;99.90;;;;;;5035283;28;20530;-44
2023/04/20 12:18:11;;;;;;;1.40;1.30;;;10.90;99.90;;;;;;5035927;28;20177;-46
2023/04/20 12:20:36;;;;;;;1.60;1.30;;;10.80;99.90;;;;;;5035796;28;20568;-45
2023/04/20 12:23:02;;;;;;;1.50;1.40;;;10.70;99.90;;;;;;5035440;28;20703;-44
2023/04/20 12:25:27;;;;;;;1.30;1.10;;;10.70;99.90;;;;;;5035810;28;20248;-48
2023/04/20 12:27:53;;;;;;;1.10;1.00;;;10.80;99.90;;;;;;5035415;28;20173;-46
2023/04/20 12:30:19;;;;;;;1.90;1.40;;;10.80;99.90;;;;;;5035527;28;20184;-46
2023/04/20 12:32:44;;;;;;;1.40;1.30;;;10.80;99.90;;;;;;5035250;28;20192;-45
2023/04/20 12:35:10;;;;;;;1.20;1.10;;;10.90;99.90;;;;;;5035110;28;20212;-47
2023/04/20 12:37:35;;;;;;;1.53;1.43;;;11.00;99.90;;;;;;5017431;28;20169;-46
2023/04/20 12:40:01;;;;;;;1.30;1.20;;;11.10;99.90;;;;;;5036517;28;20545;-46
2023/04/20 12:42:26;;;;;;;1.80;1.27;;;11.20;99.90;;;;;;5035050;28;20196;-46
2023/04/20 12:44:55;;;;;;;1.80;1.40;;;11.20;99.90;;;;;;5035149;28;20181;-46
2023/04/20 12:47:21;;;;;;;2.03;1.60;;;11.30;99.90;;;;;;5035207;28;20219;-46
2023/04/20 12:49:46;;;;;;;1.87;1.77;;;11.30;99.90;;;;;;5034977;28;20778;-47
2023/04/20 12:52:12;;;;;;;3.07;1.83;;;11.40;99.90;;;;;;5035224;28;20556;-45